Time;durP1;ratioP1;P1;durP2;ratioP2;P2;SDS_P1;SDS_P2;PMS_P1;PMS_P2;Temp;Humidity;BMP_temperature;BMP_pressure;BME280_temperature;BME280_humidity;BME280_pressure;Samples;Min_cycle;Max_cycle;Signal;HPM_P1;HPM_P2
2023/06/17 00:01:40;;;;;;;;;;;21.70;87.80;;;;;;5118097;28;19908;-44
2023/06/17 00:04:06;;;;;;;;;;;21.80;87.80;;;;;;5117975;28;19908;-44
2023/06/17 00:06:31;;;;;;;;;;;21.70;87.80;;;;;;5117708;28;20403;-45
2023/06/17 00:08:57;;;;;;;;;;;21.70;87.80;;;;;;5099628;28;19907;-44
2023/06/17 00:11:23;;;;;;;;;;;21.70;87.80;;;;;;5117910;28;19908;-45
2023/06/17 00:13:48;;;;;;;;;;;21.70;87.80;;;;;;5099503;28;19957;-46
2023/06/17 00:16:14;;;;;;;;;;;21.70;87.80;;;;;;5117428;28;19908;-44
2023/06/17 00:18:41;;;;;;;;;;;21.70;88.30;;;;;;5117493;28;20006;-46
2023/06/17 00:21:06;;;;;;;;;;;21.70;87.80;;;;;;5117401;28;20358;-43
2023/06/17 00:23:32;;;;;;;;;;;21.70;87.80;;;;;;5117606;28;19914;-43
2023/06/17 00:25:57;;;;;;;;;;;21.70;87.80;;;;;;5117573;28;19914;-43
2023/06/17 00:28:23;;;;;;;;;;;21.70;87.80;;;;;;5117269;28;19912;-45
2023/06/17 00:30:48;;;;;;;;;;;21.70;87.80;;;;;;5117399;28;20255;-43
2023/06/17 00:33:14;;;;;;;;;;;21.70;87.80;;;;;;5117502;28;19914;-43
2023/06/17 00:35:40;;;;;;;;;;;21.70;87.80;;;;;;5117064;28;19915;-44
2023/06/17 00:38:05;;;;;;;;;;;21.70;87.80;;;;;;5117308;28;19911;-45
2023/06/17 00:40:31;;;;;;;;;;;21.70;87.80;;;;;;5117043;28;19918;-45
2023/06/17 00:42:56;;;;;;;;;;;21.70;87.80;;;;;;5117262;28;19908;-44
2023/06/17 00:45:22;;;;;;;;;;;21.70;87.80;;;;;;5117100;28;19912;-45
2023/06/17 00:47:47;;;;;;;;;;;21.70;87.80;;;;;;5116722;28;20006;-44
2023/06/17 00:50:14;;;;;;;;;;;21.70;87.80;;;;;;5116875;28;19930;-44
2023/06/17 00:52:40;;;;;;;;;;;21.70;87.80;;;;;;5117181;28;20405;-44
2023/06/17 00:55:08;;;;;;;;;;;21.70;87.80;;;;;;5117047;28;20375;-43
2023/06/17 00:57:35;;;;;;;;;;;21.70;87.80;;;;;;5116983;28;19911;-44
2023/06/17 01:00:01;;;;;;;;;;;21.70;87.80;;;;;;5116618;28;20358;-47
2023/06/17 01:02:27;;;;;;;;;;;21.70;87.80;;;;;;5116904;28;19953;-44
2023/06/17 01:04:53;;;;;;;;;;;21.70;87.80;;;;;;5116826;28;19998;-46
2023/06/17 01:07:40;;;;;;;;;;;21.70;87.80;;;;;;5115682;28;19908;-43
2023/06/17 01:10:16;;;;;;;;;;;21.70;87.80;;;;;;5116878;28;19908;-46
2023/06/17 01:12:42;;;;;;;;;;;21.70;87.80;;;;;;5116820;28;19958;-42
2023/06/17 01:15:10;;;;;;;;;;;21.70;87.80;;;;;;5116349;28;19908;-44
2023/06/17 01:17:36;;;;;;;;;;;21.70;87.80;;;;;;5098362;28;19912;-42
2023/06/17 01:20:03;;;;;;;;;;;21.70;87.80;;;;;;5116518;28;19915;-42
2023/06/17 01:22:29;;;;;;;;;;;21.70;87.80;;;;;;5116479;28;19912;-42
2023/06/17 01:24:56;;;;;;;;;;;21.70;87.80;;;;;;5116198;28;19915;-44
2023/06/17 01:27:23;;;;;;;;;;;21.70;87.80;;;;;;5116149;28;20359;-43
2023/06/17 01:29:48;;;;;;;;;;;21.70;87.80;;;;;;5116047;28;20286;-44
2023/06/17 01:32:14;;;;;;;;;;;21.70;87.80;;;;;;5116589;28;19971;-45
2023/06/17 01:34:40;;;;;;;;;;;21.70;87.80;;;;;;5116035;28;19977;-42
2023/06/17 01:37:08;;;;;;;;;;;21.60;87.80;;;;;;5116108;28;20262;-42
2023/06/17 01:39:35;;;;;;;;;;;21.70;87.80;;;;;;5116058;28;19934;-44
2023/06/17 01:42:02;;;;;;;;;;;21.70;87.80;;;;;;5115995;28;19908;-44
2023/06/17 01:44:28;;;;;;;;;;;21.70;87.80;;;;;;5115814;28;19911;-43
2023/06/17 01:46:54;;;;;;;;;;;21.70;87.80;;;;;;5115897;28;19927;-44
2023/06/17 01:49:20;;;;;;;;;;;21.70;87.80;;;;;;5115649;28;19999;-46
2023/06/17 01:51:45;;;;;;;;;;;21.70;87.80;;;;;;5115603;28;20318;-44
2023/06/17 01:54:11;;;;;;;;;;;21.70;87.80;;;;;;5115898;28;20010;-45
2023/06/17 01:56:36;;;;;;;;;;;21.70;87.80;;;;;;5115548;28;19914;-45
2023/06/17 01:59:02;;;;;;;;;;;21.70;87.80;;;;;;5115462;28;20274;-41
2023/06/17 02:01:27;;;;;;;;;;;21.60;87.70;;;;;;5115803;28;19918;-44
2023/06/17 02:03:53;;;;;;;;;;;21.60;87.70;;;;;;5097566;28;19934;-46
2023/06/17 02:06:18;;;;;;;;;;;21.70;87.80;;;;;;5115446;28;19912;-46
2023/06/17 02:08:45;;;;;;;;;;;21.70;87.80;;;;;;5115451;28;19976;-42
2023/06/17 02:11:10;;;;;;;;;;;21.70;87.80;;;;;;5115666;28;19983;-45
2023/06/17 02:13:36;;;;;;;;;;;21.60;87.80;;;;;;5115603;28;19908;-48
2023/06/17 02:16:02;;;;;;;;;;;21.60;87.80;;;;;;5115163;28;19953;-45
2023/06/17 02:18:27;;;;;;;;;;;21.60;87.70;;;;;;5115091;28;19965;-46
2023/06/17 02:20:53;;;;;;;;;;;21.60;87.70;;;;;;5115358;28;20200;-46
2023/06/17 02:23:18;;;;;;;;;;;21.70;87.80;;;;;;5115395;28;20326;-42
2023/06/17 02:25:44;;;;;;;;;;;21.60;87.80;;;;;;5114928;28;19915;-43
2023/06/17 02:28:09;;;;;;;;;;;21.60;87.80;;;;;;5114890;28;19914;-45
2023/06/17 02:30:35;;;;;;;;;;;21.70;87.80;;;;;;5114961;28;19908;-44
2023/06/17 02:33:00;;;;;;;;;;;21.70;87.80;;;;;;5115347;28;19908;-42
2023/06/17 02:35:26;;;;;;;;;;;21.60;87.70;;;;;;5114868;28;20006;-43
2023/06/17 02:37:52;;;;;;;;;;;21.60;87.70;;;;;;5114814;28;19981;-43
2023/06/17 02:40:17;;;;;;;;;;;21.70;87.80;;;;;;5114798;28;19912;-45
2023/06/17 02:42:43;;;;;;;;;;;21.60;87.70;;;;;;5115012;28;19956;-43
2023/06/17 02:45:11;;;;;;;;;;;21.70;87.80;;;;;;5096762;28;20335;-44
2023/06/17 02:47:36;;;;;;;;;;;21.60;87.70;;;;;;5114593;28;19920;-43
2023/06/17 02:50:03;;;;;;;;;;;21.70;87.80;;;;;;5114638;28;19915;-43
2023/06/17 02:52:30;;;;;;;;;;;21.70;87.80;;;;;;5114879;28;19918;-43
2023/06/17 02:54:56;;;;;;;;;;;21.60;87.80;;;;;;5114548;28;20248;-42
2023/06/17 02:57:21;;;;;;;;;;;21.60;87.80;;;;;;5114714;28;19919;-42
2023/06/17 02:59:47;;;;;;;;;;;21.60;87.80;;;;;;5114820;28;19912;-46
2023/06/17 03:02:12;;;;;;;;;;;21.60;87.80;;;;;;5114462;28;20330;-44
2023/06/17 03:04:38;;;;;;;;;;;21.60;87.80;;;;;;5114455;28;19912;-45
2023/06/17 03:07:04;;;;;;;;;;;21.60;87.80;;;;;;5114652;28;20381;-47
2023/06/17 03:09:30;;;;;;;;;;;21.60;87.80;;;;;;5114663;28;19908;-43
2023/06/17 03:11:55;;;;;;;;;;;21.60;87.80;;;;;;5114340;28;19961;-43
2023/06/17 03:14:21;;;;;;;;;;;21.60;87.80;;;;;;5114629;28;19907;-43
2023/06/17 03:16:46;;;;;;;;;;;21.60;87.80;;;;;;5114556;28;19915;-42
2023/06/17 03:19:13;;;;;;;;;;;21.60;87.80;;;;;;5114501;28;19919;-45
2023/06/17 03:21:40;;;;;;;;;;;21.60;87.70;;;;;;5114514;28;19915;-43
2023/06/17 03:24:09;;;;;;;;;;;21.60;87.80;;;;;;5114486;28;20391;-45
2023/06/17 03:26:34;;;;;;;;;;;21.60;87.80;;;;;;5114347;28;19908;-44
2023/06/17 03:29:00;;;;;;;;;;;21.60;87.80;;;;;;5114431;28;20026;-44
2023/06/17 03:31:26;;;;;;;;;;;21.60;87.80;;;;;;5118163;28;19908;-43
2023/06/17 03:33:52;;;;;;;;;;;21.60;87.80;;;;;;5118273;28;19908;-44
2023/06/17 03:36:18;;;;;;;;;;;21.60;87.80;;;;;;5118583;28;19912;-43
2023/06/17 03:38:46;;;;;;;;;;;21.60;87.80;;;;;;5118429;28;19912;-43
2023/06/17 03:41:12;;;;;;;;;;;21.60;87.80;;;;;;5118241;28;19935;-43
2023/06/17 03:43:37;;;;;;;;;;;21.70;87.80;;;;;;5118508;28;20385;-43
2023/06/17 03:46:03;;;;;;;;;;;21.60;87.80;;;;;;5118400;28;20002;-42
2023/06/17 03:48:28;;;;;;;;;;;21.60;87.80;;;;;;5118537;28;19932;-44
2023/06/17 03:50:54;;;;;;;;;;;21.60;87.70;;;;;;5118321;28;19915;-44
2023/06/17 03:53:19;;;;;;;;;;;21.70;87.80;;;;;;5118240;28;19915;-42
2023/06/17 03:55:46;;;;;;;;;;;21.70;87.80;;;;;;5118276;28;19915;-41
2023/06/17 03:58:14;;;;;;;;;;;21.70;87.80;;;;;;5118070;28;20350;-44
2023/06/17 04:00:40;;;;;;;;;;;21.70;87.80;;;;;;5117940;28;19912;-45
2023/06/17 04:03:06;;;;;;;;;;;21.70;87.70;;;;;;5118161;28;20257;-42
2023/06/17 04:05:32;;;;;;;;;;;21.70;87.70;;;;;;5117758;28;19908;-45
2023/06/17 04:07:59;;;;;;;;;;;21.70;87.70;;;;;;5117573;28;19955;-45
2023/06/17 04:10:25;;;;;;;;;;;21.70;87.70;;;;;;5117875;28;19908;-41
2023/06/17 04:12:50;;;;;;;;;;;21.70;87.70;;;;;;5117929;28;19912;-42
2023/06/17 04:15:16;;;;;;;;;;;21.70;87.80;;;;;;5117630;28;20338;-48
2023/06/17 04:17:41;;;;;;;;;;;21.70;87.70;;;;;;5117470;28;19911;-47
2023/06/17 04:20:10;;;;;;;;;;;21.70;87.70;;;;;;5118223;28;20423;-45
2023/06/17 04:22:37;;;;;;;;;;;21.80;87.80;;;;;;5117491;28;20354;-43
2023/06/17 04:25:03;;;;;;;;;;;21.70;87.80;;;;;;5118041;28;19908;-43
2023/06/17 04:27:29;;;;;;;;;;;21.70;87.80;;;;;;5099387;28;19919;-43
2023/06/17 04:29:56;;;;;;;;;;;21.80;87.80;;;;;;5117906;28;20208;-44
2023/06/17 04:32:22;;;;;;;;;;;21.80;87.80;;;;;;5117251;28;20351;-46
2023/06/17 04:34:47;;;;;;;;;;;21.80;87.80;;;;;;5099239;28;19908;-43
2023/06/17 04:37:14;;;;;;;;;;;21.80;87.80;;;;;;5117343;28;19908;-44
2023/06/17 04:39:40;;;;;;;;;;;21.80;87.80;;;;;;5117027;28;19915;-44
2023/06/17 04:42:07;;;;;;;;;;;21.80;87.80;;;;;;5117200;28;19907;-43
2023/06/17 04:44:32;;;;;;;;;;;21.80;87.70;;;;;;5116939;28;20396;-44
2023/06/17 04:46:59;;;;;;;;;;;21.80;87.70;;;;;;5116915;28;19920;-45
2023/06/17 04:49:24;;;;;;;;;;;21.80;87.70;;;;;;5117354;28;19961;-43
2023/06/17 04:51:52;;;;;;;;;;;21.80;87.70;;;;;;5116929;28;20359;-43
2023/06/17 04:54:18;;;;;;;;;;;21.80;87.70;;;;;;5116714;28;19908;-45
2023/06/17 04:56:43;;;;;;;;;;;21.80;87.70;;;;;;5117353;28;20003;-46
2023/06/17 04:59:09;;;;;;;;;;;21.80;87.70;;;;;;5116957;28;19951;-42
2023/06/17 05:01:35;;;;;;;;;;;21.80;87.70;;;;;;5116949;28;19934;-45
2023/06/17 05:04:00;;;;;;;;;;;21.80;87.60;;;;;;5117262;28;19908;-43
2023/06/17 05:06:26;;;;;;;;;;;21.80;87.60;;;;;;5116740;28;19943;-42
2023/06/17 05:08:51;;;;;;;;;;;21.80;87.60;;;;;;5116810;28;19908;-46
2023/06/17 05:11:17;;;;;;;;;;;21.80;87.60;;;;;;5116555;28;20269;-42
2023/06/17 05:13:42;;;;;;;;;;;21.80;87.60;;;;;;5116551;28;19914;-44
2023/06/17 05:16:08;;;;;;;;;;;21.80;87.70;;;;;;5116634;28;20439;-44
2023/06/17 05:18:33;;;;;;;;;;;21.80;87.60;;;;;;5116398;28;19970;-43
2023/06/17 05:20:58;;;;;;;;;;;21.80;87.60;;;;;;5116292;28;19920;-44
2023/06/17 05:23:24;;;;;;;;;;;21.80;87.60;;;;;;5116509;28;19908;-43
2023/06/17 05:25:49;;;;;;;;;;;21.80;87.60;;;;;;5116331;28;20027;-43
2023/06/17 05:28:15;;;;;;;;;;;21.80;87.60;;;;;;5116160;28;19912;-42
2023/06/17 05:30:42;;;;;;;;;;;21.80;87.60;;;;;;5116317;28;19908;-42
2023/06/17 05:33:07;;;;;;;;;;;21.80;87.60;;;;;;5097803;28;19938;-46
2023/06/17 05:35:33;;;;;;;;;;;21.80;87.60;;;;;;5115970;28;20484;-44
2023/06/17 05:37:58;;;;;;;;;;;21.80;87.60;;;;;;5116036;28;19922;-42
2023/06/17 05:40:24;;;;;;;;;;;21.90;87.70;;;;;;5097402;28;20263;-43
2023/06/17 05:42:49;;;;;;;;;;;21.80;87.60;;;;;;5115708;28;19907;-43
2023/06/17 05:45:16;;;;;;;;;;;21.80;87.60;;;;;;5115703;28;19998;-42
2023/06/17 05:47:41;;;;;;;;;;;21.80;87.60;;;;;;5115896;28;19920;-44
2023/06/17 05:50:07;;;;;;;;;;;21.80;87.60;;;;;;5115838;28;19915;-43
2023/06/17 05:52:32;;;;;;;;;;;21.80;87.60;;;;;;5096876;28;20006;-44
2023/06/17 05:54:58;;;;;;;;;;;21.80;87.60;;;;;;5115342;28;20113;-44
2023/06/17 05:57:23;;;;;;;;;;;21.80;87.60;;;;;;5115077;28;19908;-43
2023/06/17 05:59:49;;;;;;;;;;;21.80;87.60;;;;;;5116029;28;19920;-45
2023/06/17 06:02:14;;;;;;;;;;;21.80;87.60;;;;;;5115759;28;19908;-44
2023/06/17 06:04:39;;;;;;;;;;;21.80;87.60;;;;;;5115631;28;20093;-44
2023/06/17 06:07:05;;;;;;;;;;;21.80;87.60;;;;;;5115367;28;20370;-42
2023/06/17 06:09:30;;;;;;;;;;;21.80;87.60;;;;;;5115469;28;20368;-44
2023/06/17 06:11:56;;;;;;;;;;;21.80;87.60;;;;;;5115598;28;19908;-44
2023/06/17 06:14:21;;;;;;;;;;;21.80;88.10;;;;;;5115125;28;19908;-47
2023/06/17 06:16:47;;;;;;;;;;;21.80;87.60;;;;;;5115098;28;20002;-45
2023/06/17 06:19:12;;;;;;;;;;;21.80;87.60;;;;;;5115221;28;19925;-45
2023/06/17 06:21:38;;;;;;;;;;;21.80;87.60;;;;;;5114925;28;19947;-46
2023/06/17 06:24:03;;;;;;;;;;;21.80;87.70;;;;;;5114783;28;20355;-43
2023/06/17 06:26:29;;;;;;;;;;;21.80;87.60;;;;;;5115143;28;19943;-44
2023/06/17 06:28:54;;;;;;;;;;;21.80;87.60;;;;;;5115166;28;20002;-43
2023/06/17 06:31:20;;;;;;;;;;;21.80;87.70;;;;;;5115108;28;19908;-44
2023/06/17 06:33:46;;;;;;;;;;;21.80;87.70;;;;;;5115097;28;20350;-44
2023/06/17 06:36:12;;;;;;;;;;;21.80;87.70;;;;;;5115049;28;20002;-44
2023/06/17 06:38:37;;;;;;;;;;;21.80;87.70;;;;;;5115006;28;20319;-45
2023/06/17 06:41:02;;;;;;;;;;;21.80;87.70;;;;;;5114769;28;19912;-42
2023/06/17 06:43:28;;;;;;;;;;;21.80;87.70;;;;;;5114566;28;19947;-47
2023/06/17 06:45:53;;;;;;;;;;;21.80;87.70;;;;;;5096297;28;19968;-44
2023/06/17 06:48:19;;;;;;;;;;;21.80;87.70;;;;;;5096252;28;19970;-43
2023/06/17 06:50:44;;;;;;;;;;;21.80;87.70;;;;;;5114824;28;20322;-45
2023/06/17 06:53:10;;;;;;;;;;;21.80;87.70;;;;;;5114561;28;20048;-44
2023/06/17 06:55:35;;;;;;;;;;;21.80;87.70;;;;;;5114329;28;20396;-43
2023/06/17 06:58:01;;;;;;;;;;;21.80;87.70;;;;;;5114244;28;19919;-42
2023/06/17 07:00:26;;;;;;;;;;;21.80;87.70;;;;;;5114334;28;19955;-45
2023/06/17 07:02:52;;;;;;;;;;;21.80;87.70;;;;;;5114401;28;19907;-45
2023/06/17 07:05:17;;;;;;;;;;;21.80;87.70;;;;;;5113705;28;19916;-46
2023/06/17 07:07:44;;;;;;;;;;;21.80;87.70;;;;;;5114180;28;19962;-43
2023/06/17 07:10:09;;;;;;;;;;;21.80;87.80;;;;;;5114199;28;19914;-42
2023/06/17 07:12:35;;;;;;;;;;;21.80;87.80;;;;;;5114504;28;19908;-46
2023/06/17 07:15:00;;;;;;;;;;;21.80;87.80;;;;;;5114533;28;20416;-49
2023/06/17 07:17:26;;;;;;;;;;;21.80;87.80;;;;;;5114077;28;20281;-43
2023/06/17 07:19:51;;;;;;;;;;;21.80;87.80;;;;;;5114379;28;19912;-45
2023/06/17 07:22:17;;;;;;;;;;;21.80;87.80;;;;;;5114515;28;20258;-44
2023/06/17 07:24:42;;;;;;;;;;;21.80;87.80;;;;;;5114188;28;19908;-43
2023/06/17 07:27:07;;;;;;;;;;;21.80;87.80;;;;;;5096154;28;19915;-47
2023/06/17 07:29:33;;;;;;;;;;;21.80;87.80;;;;;;5114284;28;20278;-44
2023/06/17 07:31:58;;;;;;;;;;;21.80;87.80;;;;;;5114728;28;19911;-44
2023/06/17 07:34:24;;;;;;;;;;;21.80;87.80;;;;;;5114313;28;20010;-48
2023/06/17 07:36:52;;;;;;;;;;;21.80;87.80;;;;;;5096026;28;20372;-43
2023/06/17 07:39:19;;;;;;;;;;;21.80;87.80;;;;;;5114194;28;19916;-43
2023/06/17 07:41:44;;;;;;;;;;;21.80;87.70;;;;;;5113519;28;19934;-49
2023/06/17 07:44:10;;;;;;;;;;;21.80;87.70;;;;;;5113799;28;20358;-46
2023/06/17 07:46:35;;;;;;;;;;;21.80;87.70;;;;;;5113679;28;19977;-43
2023/06/17 07:49:01;;;;;;;;;;;21.80;87.80;;;;;;5114429;28;19915;-45
2023/06/17 07:51:26;;;;;;;;;;;21.80;87.80;;;;;;5113799;28;19984;-46
2023/06/17 07:53:52;;;;;;;;;;;21.80;87.80;;;;;;5113972;28;20222;-45
2023/06/17 07:56:18;;;;;;;;;;;21.80;87.80;;;;;;5113798;28;19908;-47
2023/06/17 07:58:44;;;;;;;;;;;21.80;87.80;;;;;;5113723;28;19912;-41
2023/06/17 08:01:09;;;;;;;;;;;21.80;87.80;;;;;;5113722;28;19919;-46
2023/06/17 08:03:35;;;;;;;;;;;21.80;87.90;;;;;;5113674;28;20266;-44
2023/06/17 08:06:01;;;;;;;;;;;21.80;87.90;;;;;;5113602;28;19908;-41
2023/06/17 08:08:26;;;;;;;;;;;21.80;87.90;;;;;;5113658;28;19908;-45
2023/06/17 08:10:52;;;;;;;;;;;21.80;87.90;;;;;;5114099;28;19908;-43
2023/06/17 08:13:17;;;;;;;;;;;21.80;87.90;;;;;;5113875;28;19915;-48
2023/06/17 08:15:43;;;;;;;;;;;21.80;87.60;;;;;;5114190;28;19908;-46
2023/06/17 08:18:08;;;;;;;;;;;21.80;87.50;;;;;;5117479;28;19916;-44
2023/06/17 08:20:36;;;;;;;;;;;21.80;87.40;;;;;;5117700;28;19957;-43
2023/06/17 08:23:02;;;;;;;;;;;21.80;87.20;;;;;;5099279;28;19915;-44
2023/06/17 08:25:28;;;;;;;;;;;21.80;87.30;;;;;;5117156;28;19908;-45
2023/06/17 08:27:53;;;;;;;;;;;21.80;87.50;;;;;;5117348;28;20329;-45
2023/06/17 08:30:19;;;;;;;;;;;21.80;87.70;;;;;;5117269;28;20335;-43
2023/06/17 08:32:44;;;;;;;;;;;21.80;87.70;;;;;;5117043;28;19912;-43
2023/06/17 08:35:10;;;;;;;;;;;21.80;87.60;;;;;;5116948;28;20049;-45
2023/06/17 08:37:35;;;;;;;;;;;21.80;87.60;;;;;;5116940;28;20235;-45
2023/06/17 08:40:03;;;;;;;;;;;21.80;87.60;;;;;;5117169;28;20354;-48
2023/06/17 08:42:29;;;;;;;;;;;21.80;87.30;;;;;;5116676;28;19911;-43
2023/06/17 08:44:57;;;;;;;;;;;21.80;87.50;;;;;;5117387;28;19915;-46
2023/06/17 08:47:23;;;;;;;;;;;21.80;87.70;;;;;;5116440;28;19919;-47
2023/06/17 08:49:48;;;;;;;;;;;21.80;87.70;;;;;;5116651;28;19912;-42
2023/06/17 08:52:15;;;;;;;;;;;21.80;87.70;;;;;;5116836;28;19908;-43
2023/06/17 08:54:40;;;;;;;;;;;21.80;87.80;;;;;;5116564;28;20350;-45
2023/06/17 08:57:11;;;;;;;;;;;21.80;87.70;;;;;;5117210;28;19915;-44
2023/06/17 08:59:37;;;;;;;;;;;21.80;87.60;;;;;;5116404;28;20331;-43
2023/06/17 09:02:03;;;;;;;;;;;21.80;87.50;;;;;;5116747;28;19958;-42
2023/06/17 09:04:29;;;;;;;;;;;21.80;87.60;;;;;;5116700;28;20286;-44
2023/06/17 09:06:54;;;;;;;;;;;21.80;87.60;;;;;;5116521;28;19961;-43
2023/06/17 09:09:20;;;;;;;;;;;21.80;87.30;;;;;;5116441;28;19960;-45
2023/06/17 09:11:50;;;;;;;;;;;21.80;87.50;;;;;;5116344;28;19908;-45
2023/06/17 09:14:16;;;;;;;;;;;21.80;87.60;;;;;;5116982;28;19907;-45
2023/06/17 09:16:43;;;;;;;;;;;21.80;87.40;;;;;;5116538;28;19930;-43
2023/06/17 09:19:14;;;;;;;;;;;21.80;87.50;;;;;;5116300;28;19922;-46
2023/06/17 09:21:40;;;;;;;;;;;21.80;87.60;;;;;;5116256;28;19957;-44
2023/06/17 09:24:09;;;;;;;;;;;21.90;87.80;;;;;;5116005;28;20327;-43
2023/06/17 09:26:38;;;;;;;;;;;21.80;87.80;;;;;;5116375;28;20303;-42
2023/06/17 09:29:07;;;;;;;;;;;21.80;87.70;;;;;;5115110;28;19912;-44
2023/06/17 09:31:45;;;;;;;;;;;21.90;87.60;;;;;;5116261;28;19908;-43
2023/06/17 09:34:11;;;;;;;;;;;21.80;87.70;;;;;;5116057;28;19912;-44
2023/06/17 09:36:38;;;;;;;;;;;21.80;87.80;;;;;;5115968;28;19908;-42
2023/06/17 09:39:08;;;;;;;;;;;21.80;87.80;;;;;;5115936;28;19961;-42
2023/06/17 09:41:37;;;;;;;;;;;21.80;87.90;;;;;;5115757;28;19912;-45
2023/06/17 09:44:02;;;;;;;;;;;21.80;87.90;;;;;;5115617;28;19912;-44
2023/06/17 09:46:35;;;;;;;;;;;21.90;87.90;;;;;;5115454;28;19919;-45
2023/06/17 09:49:09;;;;;;;;;;;21.90;87.90;;;;;;5115747;28;19920;-44
2023/06/17 09:51:38;;;;;;;;;;;21.90;88.00;;;;;;5115964;28;19912;-43
2023/06/17 09:54:04;;;;;;;;;;;21.90;87.90;;;;;;5115593;28;19908;-43
2023/06/17 09:56:31;;;;;;;;;;;21.90;87.80;;;;;;5115126;28;20373;-45
2023/06/17 09:58:57;;;;;;;;;;;21.90;87.90;;;;;;5115071;28;20308;-42
2023/06/17 10:01:30;;;;;;;;;;;21.90;87.90;;;;;;5115188;28;19916;-45
2023/06/17 10:04:02;;;;;;;;;;;21.90;87.90;;;;;;5115315;28;19915;-44
2023/06/17 10:06:29;;;;;;;;;;;21.90;87.90;;;;;;5115005;28;19908;-44
2023/06/17 10:08:55;;;;;;;;;;;21.90;87.90;;;;;;5115200;28;19907;-44
2023/06/17 10:11:21;;;;;;;;;;;21.90;87.90;;;;;;5096804;28;19908;-44
2023/06/17 10:13:53;;;;;;;;;;;21.90;87.90;;;;;;5096438;28;19957;-46
2023/06/17 10:16:19;;;;;;;;;;;21.90;87.90;;;;;;5096898;28;19918;-42
2023/06/17 10:18:47;;;;;;;;;;;21.90;87.90;;;;;;5115006;28;20267;-44
2023/06/17 10:21:13;;;;;;;;;;;21.90;87.90;;;;;;5114728;28;19964;-42
2023/06/17 10:23:39;;;;;;;;;;;21.90;87.80;;;;;;5114504;28;19912;-43
2023/06/17 10:26:06;;;;;;;;;;;21.90;87.70;;;;;;5114779;28;19912;-44
2023/06/17 10:28:45;;;;;;;;;;;21.90;87.80;;;;;;5114748;28;19914;-43
2023/06/17 10:31:37;;;;;;;;;;;21.90;87.90;;;;;;5114656;28;19953;-44
2023/06/17 10:34:03;;;;;;;;;;;21.90;87.90;;;;;;5115044;28;19961;-45
2023/06/17 10:36:29;;;;;;;;;;;21.90;87.90;;;;;;5115086;28;20006;-44
2023/06/17 10:38:56;;;;;;;;;;;21.90;87.90;;;;;;5114410;28;19962;-44
2023/06/17 10:41:21;;;;;;;;;;;21.90;87.90;;;;;;5114189;28;19964;-43
2023/06/17 10:43:49;;;;;;;;;;;21.90;87.80;;;;;;5114896;28;19912;-45
2023/06/17 10:46:22;;;;;;;;;;;21.90;87.80;;;;;;5114480;28;19931;-46
2023/06/17 10:48:48;;;;;;;;;;;21.90;87.80;;;;;;5115005;28;19926;-46
2023/06/17 10:51:15;;;;;;;;;;;21.80;87.80;;;;;;5114457;28;19908;-43
2023/06/17 10:53:46;;;;;;;;;;;21.80;87.70;;;;;;5114433;28;19915;-46
2023/06/17 10:56:11;;;;;;;;;;;21.90;87.60;;;;;;5114929;28;19922;-44
2023/06/17 10:58:42;;;;;;;;;;;21.80;87.70;;;;;;5114400;28;20002;-44
2023/06/17 11:01:09;;;;;;;;;;;21.90;87.70;;;;;;5114514;28;20274;-45
2023/06/17 11:03:35;;;;;;;;;;;21.90;87.60;;;;;;5114381;28;20262;-43
2023/06/17 11:06:01;;;;;;;;;;;21.90;87.70;;;;;;5113926;28;19912;-45
2023/06/17 11:08:28;;;;;;;;;;;21.90;87.70;;;;;;5114031;28;20268;-44
2023/06/17 11:11:04;;;;;;;;;;;21.90;87.70;;;;;;5114312;28;20351;-46
2023/06/17 11:13:30;;;;;;;;;;;21.90;87.50;;;;;;5114385;28;20382;-44
2023/06/17 11:15:56;;;;;;;;;;;21.90;87.50;;;;;;5114390;28;19914;-42
2023/06/17 11:18:21;;;;;;;;;;;21.90;87.60;;;;;;5114284;28;19912;-45
2023/06/17 11:20:47;;;;;;;;;;;21.90;87.60;;;;;;5114326;28;19918;-45
2023/06/17 11:23:12;;;;;;;;;;;21.90;87.40;;;;;;5114012;28;20297;-44
2023/06/17 11:25:39;;;;;;;;;;;21.90;87.50;;;;;;5114661;28;19943;-45
2023/06/17 11:28:04;;;;;;;;;;;21.90;87.60;;;;;;5114657;28;20041;-43
2023/06/17 11:30:31;;;;;;;;;;;21.90;87.70;;;;;;5114029;28;20358;-46
2023/06/17 11:32:56;;;;;;;;;;;21.90;87.70;;;;;;5114004;28;19934;-43
2023/06/17 11:35:23;;;;;;;;;;;21.90;87.70;;;;;;5113855;28;19908;-43
2023/06/17 11:37:48;;;;;;;;;;;21.90;87.80;;;;;;5114143;28;19918;-45
2023/06/17 11:40:16;;;;;;;;;;;21.90;87.80;;;;;;5114075;28;19912;-44
2023/06/17 11:42:41;;;;;;;;;;;21.90;87.80;;;;;;5114040;28;20247;-42
2023/06/17 11:45:07;;;;;;;;;;;21.90;87.80;;;;;;5114044;28;19908;-43
2023/06/17 11:47:33;;;;;;;;;;;21.90;87.80;;;;;;5113681;28;19927;-43
2023/06/17 11:49:59;;;;;;;;;;;21.90;87.90;;;;;;5114132;28;20405;-44
2023/06/17 11:52:24;;;;;;;;;;;21.90;87.90;;;;;;5116829;28;19908;-45
2023/06/17 11:54:50;;;;;;;;;;;21.90;87.80;;;;;;5118057;28;19960;-45
2023/06/17 11:57:16;;;;;;;;;;;21.90;87.80;;;;;;5117548;28;19908;-47
2023/06/17 11:59:43;;;;;;;;;;;21.90;87.80;;;;;;5117516;28;19915;-46
2023/06/17 12:02:10;;;;;;;;;;;21.90;87.80;;;;;;5117907;28;19912;-44
2023/06/17 12:04:35;;;;;;;;;;;21.90;87.70;;;;;;5117778;28;19960;-43
2023/06/17 12:07:03;;;;;;;;;;;21.90;87.70;;;;;;5117980;28;20014;-43
2023/06/17 12:09:29;;;;;;;;;;;21.90;87.70;;;;;;5117562;28;19980;-43
2023/06/17 12:11:55;;;;;;;;;;;21.90;87.80;;;;;;5117634;28;19937;-45
2023/06/17 12:14:20;;;;;;;;;;;21.90;87.80;;;;;;5117421;28;20362;-44
2023/06/17 12:16:47;;;;;;;;;;;21.90;87.90;;;;;;5117364;28;19915;-46
2023/06/17 12:19:14;;;;;;;;;;;21.90;87.90;;;;;;5117661;28;19912;-47
2023/06/17 12:21:39;;;;;;;;;;;21.90;87.90;;;;;;5117165;28;19915;-43
2023/06/17 12:24:05;;;;;;;;;;;21.90;87.90;;;;;;5117226;28;19957;-45
2023/06/17 12:26:33;;;;;;;;;;;21.90;87.90;;;;;;5117270;28;19994;-44
2023/06/17 12:28:59;;;;;;;;;;;21.90;87.90;;;;;;5098854;28;19973;-44
2023/06/17 12:31:25;;;;;;;;;;;21.90;87.90;;;;;;5117810;28;19911;-45
2023/06/17 12:33:50;;;;;;;;;;;21.90;87.80;;;;;;5117046;28;19912;-44
2023/06/17 12:36:16;;;;;;;;;;;21.90;87.80;;;;;;5117271;28;19960;-44
2023/06/17 12:38:42;;;;;;;;;;;21.90;87.90;;;;;;5117237;28;19922;-46
2023/06/17 12:41:08;;;;;;;;;;;21.90;87.90;;;;;;5116797;28;19911;-45
2023/06/17 12:43:34;;;;;;;;;;;21.90;87.90;;;;;;5116706;28;19908;-45
2023/06/17 12:46:00;;;;;;;;;;;21.90;87.90;;;;;;5117222;28;19912;-45
2023/06/17 12:48:26;;;;;;;;;;;21.90;87.80;;;;;;5116504;28;19920;-45
2023/06/17 12:50:51;;;;;;;;;;;21.90;87.80;;;;;;5116800;28;19907;-42
2023/06/17 12:53:17;;;;;;;;;;;21.90;87.80;;;;;;5117231;28;20266;-43
2023/06/17 12:55:42;;;;;;;;;;;21.90;87.80;;;;;;5116647;28;19939;-45
2023/06/17 12:58:08;;;;;;;;;;;21.90;87.80;;;;;;5116682;28;19918;-42
2023/06/17 13:00:34;;;;;;;;;;;21.90;87.90;;;;;;5116760;28;19912;-42
2023/06/17 13:02:59;;;;;;;;;;;21.90;87.90;;;;;;5114616;28;19969;-46
2023/06/17 13:05:25;;;;;;;;;;;21.90;87.90;;;;;;5116257;28;19914;-44
2023/06/17 13:07:51;;;;;;;;;;;21.90;88.00;;;;;;5116686;28;20250;-46
2023/06/17 13:10:16;;;;;;;;;;;21.90;88.00;;;;;;5116692;28;19914;-43
2023/06/17 13:12:42;;;;;;;;;;;21.90;88.00;;;;;;5116639;28;19953;-45
2023/06/17 13:15:08;;;;;;;;;;;21.90;88.00;;;;;;5116487;28;19915;-44
2023/06/17 13:17:33;;;;;;;;;;;21.90;88.00;;;;;;5098054;28;19907;-45
2023/06/17 13:20:00;;;;;;;;;;;21.90;88.00;;;;;;5116101;28;20379;-44
2023/06/17 13:22:25;;;;;;;;;;;21.90;88.00;;;;;;5116213;28;19907;-45
2023/06/17 13:24:51;;;;;;;;;;;21.90;88.00;;;;;;5116057;28;19914;-44
2023/06/17 13:27:18;;;;;;;;;;;21.90;87.90;;;;;;5115840;28;19915;-44
2023/06/17 13:29:44;;;;;;;;;;;21.90;87.90;;;;;;5115910;28;20017;-47
2023/06/17 13:32:11;;;;;;;;;;;21.90;87.90;;;;;;5116021;28;19912;-43
2023/06/17 13:34:36;;;;;;;;;;;21.90;87.90;;;;;;5116180;28;20343;-45
2023/06/17 13:37:02;;;;;;;;;;;21.90;88.00;;;;;;5115670;28;19918;-44
2023/06/17 13:39:28;;;;;;;;;;;21.90;88.00;;;;;;5115811;28;19912;-44
2023/06/17 13:41:53;;;;;;;;;;;21.90;88.00;;;;;;5115508;28;19912;-46
2023/06/17 13:44:19;;;;;;;;;;;21.90;88.00;;;;;;5115654;28;20273;-44
2023/06/17 13:46:44;;;;;;;;;;;21.90;88.00;;;;;;5115500;28;19915;-44
2023/06/17 13:49:10;;;;;;;;;;;21.90;88.00;;;;;;5115790;28;19959;-44
2023/06/17 13:51:35;;;;;;;;;;;21.90;88.00;;;;;;5116213;28;20274;-43
2023/06/17 13:54:01;;;;;;;;;;;21.90;88.00;;;;;;5115585;28;19912;-43
2023/06/17 13:56:27;;;;;;;;;;;21.90;87.90;;;;;;5115905;28;19908;-44
2023/06/17 13:58:53;;;;;;;;;;;21.90;88.00;;;;;;5115731;28;19911;-44
2023/06/17 14:01:18;;;;;;;;;;;21.90;87.90;;;;;;5115660;28;19922;-44
2023/06/17 14:03:44;;;;;;;;;;;21.90;88.00;;;;;;5115576;28;19965;-45
2023/06/17 14:06:10;;;;;;;;;;;21.90;88.00;;;;;;5115555;28;19908;-45
2023/06/17 14:08:35;;;;;;;;;;;21.90;87.90;;;;;;5115504;28;19953;-43
2023/06/17 14:11:00;;;;;;;;;;;21.90;87.90;;;;;;5115540;28;19907;-46